Akune, Japan

2:02 AM JST on March 30, 2015 (GMT +0900)
Kanoya | | Change Station
CLOSE
Current Station
Airport
Location: Kanoya AB,
Elevation: 223 ft
Nearby Weather Stations

Elev 223 ft 31.37 °N, 130.84 °E | Updated 2 hours ago

Partly Cloudy
Partly Cloudy
55 °F
Feels Like 55 °F
N
4
Wind Variable Wind from West

Today
High -- | Low -- °F
--% Chance of Precip.
Yesterday
High -- | Low -- °F
Precip. -- in
6:11 AM 6:37 PM
Waxing Gibbous, 73% visible
Pressure 30.04 in
Visibility 6.2 miles
Clouds Few 3000 ft
Dew Point 54 °F
Humidity 94%
Rainfall 0.00 in
Snow Depth Not available.
UV 0 out of 12
Pollen Not available.
Air Quality Not available.
Flu Activity Not available.
SPECI RJFY 291432Z 27003KT 9999 FEW030 13/12 Q1017 REVA RMK 2CU030 A3005

More Conditions Fewer Conditions

Pressure 30.04 in
Visibility 6.2 miles
Clouds Few 3000 ft
Dew Point 54 °F
Humidity 94%
Rainfall 0.00 in
Snow Depth Not available.
UV 0 out of 12
Pollen Not available.
Air Quality Not available.
Flu Activity Not available.
SPECI RJFY 291432Z 27003KT 9999 FEW030 13/12 Q1017 REVA RMK 2CU030 A3005

More Conditions Fewer Conditions

10-Day Weather Forecast

Almanac

Astronomy

Mar. 30, 2015 Rise Set
Actual Time
Civil Twilight
Nautical Twilight
Astronomical Twilight
Moon
Length of Visible Light
Length of Day
Tomorrow will be .
, % of the Moon is Illuminated

Today's Extremes

Country Highs Country Lows

Community

WunderPhotos

Upload Photos

1,809,299 photos uploaded!

WunderBlogs® & News

Nearby

Air Quality

  Air Quality AQ Index Pollutant
Not available.

Snow Depth

Station Depth Elevation

Earthquake Activity

City Distance Mag. Time & Date
Minimum magnitude displayed is 2.5.

Coastal Water Temperatures

Place Temperature

Stations

Nearby Weather Stations

Station Location Temp. Windchill Dew Point Humidity Wind Precip. Elev Updated Type